createdAt,value
2022-08-17T00:01:51.495Z,5.15
2022-08-17T00:04:19.524Z,5.35
2022-08-17T00:06:49.398Z,5.18
2022-08-17T00:09:18.468Z,5.32
2022-08-17T00:12:35.101Z,5.38
2022-08-17T00:14:36.202Z,5.38
2022-08-17T00:17:06.880Z,5.65
2022-08-17T00:19:34.146Z,4.97
2022-08-17T00:22:31.974Z,5.30
2022-08-17T00:24:50.707Z,4.78
2022-08-17T00:27:18.775Z,4.93
2022-08-17T00:29:46.199Z,5.15
2022-08-17T00:33:15.711Z,4.68
2022-08-17T00:35:05.705Z,4.70
2022-08-17T00:37:32.733Z,4.90
2022-08-17T00:39:59.786Z,4.60
2022-08-17T00:42:30.896Z,4.85
2022-08-17T00:44:58.437Z,4.75
2022-08-17T00:47:25.576Z,4.63
2022-08-17T00:49:52.610Z,4.70
2022-08-17T00:52:24.113Z,4.75
2022-08-17T00:54:54.182Z,4.30
2022-08-17T00:57:30.128Z,4.30
2022-08-17T01:00:06.546Z,5.18
2022-08-17T01:02:42.196Z,4.95
2022-08-17T01:05:18.535Z,4.60
2022-08-17T01:07:47.946Z,5.35
2022-08-17T01:10:58.195Z,4.93
2022-08-17T01:13:04.184Z,4.75
2022-08-17T01:15:35.515Z,5.10
2022-08-17T01:18:03.858Z,4.93
2022-08-17T01:20:31.088Z,4.50
2022-08-17T01:23:10.644Z,5.50
2022-08-17T01:25:43.655Z,5.22
2022-08-17T01:28:33.630Z,5.00
2022-08-17T01:31:06.216Z,4.53
2022-08-17T01:33:33.399Z,5.07
2022-08-17T01:36:00.826Z,4.38
2022-08-17T01:38:31.902Z,4.88
2022-08-17T01:41:03.725Z,5.18
2022-08-17T01:43:37.566Z,4.53
2022-08-17T01:46:04.672Z,5.32
2022-08-17T01:48:34.577Z,5.60
2022-08-17T01:51:02.064Z,4.70
2022-08-17T01:53:40.026Z,5.03
2022-08-17T01:56:12.437Z,4.95
2022-08-17T01:58:41.299Z,4.85
2022-08-17T02:01:09.501Z,4.45
2022-08-17T02:03:37.878Z,4.85
2022-08-17T02:06:06.431Z,5.20
2022-08-17T02:09:02.636Z,5.30
2022-08-17T02:11:37.944Z,4.65
2022-08-17T02:14:06.803Z,4.70
2022-08-17T02:16:38.226Z,4.50
2022-08-17T02:19:12.833Z,4.95
2022-08-17T02:21:41.296Z,4.57
2022-08-17T02:24:13.171Z,4.88
2022-08-17T02:26:40.301Z,4.65
2022-08-17T02:29:07.415Z,4.90
2022-08-17T02:31:35.694Z,5.20
2022-08-17T02:34:04.936Z,5.13
2022-08-17T02:36:34.283Z,5.05
2022-08-17T02:39:06.278Z,4.90
2022-08-17T02:41:33.637Z,5.70
2022-08-17T02:44:01.236Z,5.85
2022-08-17T02:46:28.682Z,5.97
2022-08-17T02:48:55.833Z,6.28
2022-08-17T02:51:23.131Z,5.45
2022-08-17T02:53:50.233Z,6.97
2022-08-17T02:56:17.236Z,5.40
2022-08-17T02:58:44.513Z,5.55
2022-08-17T03:01:12.794Z,5.05
2022-08-17T03:03:40.427Z,5.65
2022-08-17T03:06:07.869Z,5.45
2022-08-17T03:08:35.422Z,5.35
2022-08-17T03:11:02.396Z,5.30
2022-08-17T03:13:30.916Z,5.47
2022-08-17T03:15:57.999Z,5.07
2022-08-17T03:18:26.396Z,5.10
2022-08-17T03:20:58.809Z,5.30
2022-08-17T03:23:27.402Z,4.82
2022-08-17T03:25:55.560Z,5.38
2022-08-17T03:28:23.657Z,5.38
2022-08-17T03:30:51.505Z,5.15
2022-08-17T03:33:20.861Z,5.10
2022-08-17T03:35:48.049Z,5.68
2022-08-17T03:38:17.210Z,5.35
2022-08-17T03:40:56.260Z,5.35
2022-08-17T03:43:31.225Z,5.40
2022-08-17T03:46:34.332Z,5.65
2022-08-17T03:49:25.730Z,5.68
2022-08-17T03:52:13.156Z,5.30
2022-08-17T03:54:59.860Z,5.80
2022-08-17T03:57:27.657Z,5.55
2022-08-17T03:59:55.558Z,6.32
2022-08-17T04:02:26.975Z,5.90
2022-08-17T04:04:54.362Z,5.32
2022-08-17T04:07:25.044Z,5.55
2022-08-17T04:09:52.147Z,6.18
2022-08-17T04:12:21.588Z,5.47
2022-08-17T04:14:53.286Z,5.93
2022-08-17T04:19:48.984Z,6.15
2022-08-17T04:22:32.844Z,5.82
2022-08-17T04:25:05.308Z,5.65
2022-08-17T04:27:32.410Z,5.50
2022-08-17T04:29:59.404Z,5.55
2022-08-17T04:33:04.552Z,5.55
2022-08-17T04:35:17.652Z,5.07
2022-08-17T04:37:45.548Z,4.68
2022-08-17T04:40:31.951Z,5.30
2022-08-17T04:43:03.826Z,5.07
2022-08-17T04:45:32.254Z,5.30
2022-08-17T04:48:00.214Z,4.97
2022-08-17T04:50:27.692Z,4.88
2022-08-17T04:52:54.826Z,4.53
2022-08-17T04:55:22.273Z,4.30
2022-08-17T04:57:49.180Z,4.65
2022-08-17T05:00:16.302Z,4.60
2022-08-17T05:02:49.749Z,4.20
2022-08-17T05:05:25.297Z,4.40
2022-08-17T05:07:57.079Z,4.10
2022-08-17T05:10:29.603Z,4.60
2022-08-17T05:15:36.417Z,4.30
2022-08-17T05:18:04.454Z,3.92
2022-08-17T05:20:31.984Z,4.32
2022-08-17T05:23:04.616Z,4.82
2022-08-17T05:25:37.502Z,4.70
2022-08-17T05:28:05.043Z,5.95
2022-08-17T05:30:33.953Z,5.65
2022-08-17T05:33:03.688Z,5.50
2022-08-17T05:35:32.947Z,5.47
2022-08-17T05:38:00.963Z,5.85
2022-08-17T05:40:32.913Z,10.63
2022-08-17T05:43:09.610Z,38.63
2022-08-17T05:45:55.713Z,14.77
2022-08-17T05:48:39.602Z,4.72
2022-08-17T05:51:24.092Z,4.40
2022-08-17T05:54:02.857Z,4.82
2022-08-17T05:56:54.804Z,6.75
2022-08-17T05:59:30.669Z,8.52
2022-08-17T06:02:21.858Z,5.65
2022-08-17T06:05:33.097Z,12.40
2022-08-17T06:08:16.420Z,8.35
2022-08-17T06:10:53.957Z,5.47
2022-08-17T06:13:47.654Z,6.68
2022-08-17T06:16:33.176Z,7.18
2022-08-17T06:19:23.661Z,5.47
2022-08-17T06:21:55.075Z,8.35
2022-08-17T06:24:22.143Z,4.43
2022-08-17T06:26:50.697Z,7.00
2022-08-17T06:29:39.873Z,5.70
2022-08-17T06:32:10.008Z,6.03
2022-08-17T06:34:40.346Z,5.15
2022-08-17T06:37:22.393Z,4.35
2022-08-17T06:40:16.095Z,5.00
2022-08-17T06:43:27.625Z,4.30
2022-08-17T06:46:18.041Z,4.05
2022-08-17T06:49:08.006Z,5.05
2022-08-17T06:51:54.213Z,4.40
2022-08-17T06:54:21.757Z,4.38
2022-08-17T06:56:55.337Z,4.38
2022-08-17T06:59:54.724Z,4.28
2022-08-17T07:02:52.431Z,4.07
2022-08-17T07:05:26.214Z,4.28
2022-08-17T07:08:14.867Z,4.72
2022-08-17T07:10:48.035Z,4.72
2022-08-17T07:13:34.486Z,4.40
2022-08-17T07:16:19.552Z,4.38
2022-08-17T07:18:49.784Z,3.92
2022-08-17T07:21:28.054Z,3.70
2022-08-17T07:24:30.808Z,4.28
2022-08-17T07:27:35.549Z,4.43
2022-08-17T07:30:11.890Z,4.10
2022-08-17T07:32:45.376Z,4.20
2022-08-17T07:35:37.774Z,3.63
2022-08-17T07:38:25.259Z,3.75
2022-08-17T07:41:02.938Z,4.05
2022-08-17T07:43:35.869Z,4.40
2022-08-17T07:46:50.850Z,4.07
2022-08-17T07:49:22.744Z,4.50
2022-08-17T07:51:50.553Z,4.43
2022-08-17T07:54:26.367Z,3.45
2022-08-17T07:57:00.552Z,3.60
2022-08-17T07:59:34.449Z,3.63
2022-08-17T08:02:16.322Z,3.80
2022-08-17T08:05:03.829Z,3.40
2022-08-17T08:07:50.596Z,4.10
2022-08-17T08:10:42.810Z,4.00
2022-08-17T08:13:22.307Z,3.53
2022-08-17T08:15:55.866Z,3.70
2022-08-17T08:18:54.368Z,4.15
2022-08-17T08:21:18.552Z,4.32
2022-08-17T08:23:57.507Z,3.67
2022-08-17T08:26:47.124Z,3.70
2022-08-17T08:29:38.023Z,4.28
2022-08-17T08:32:57.304Z,3.05
2022-08-17T08:35:37.357Z,3.58
2022-08-17T08:38:39.033Z,3.50
2022-08-17T08:41:24.267Z,2.60
2022-08-17T08:44:59.702Z,2.50
2022-08-17T08:47:36.910Z,3.17
2022-08-17T08:50:40.435Z,3.20
2022-08-17T08:53:11.516Z,2.88
2022-08-17T08:56:10.311Z,3.50
2022-08-17T08:58:50.551Z,3.25
2022-08-17T09:01:42.544Z,3.88
2022-08-17T09:05:09.952Z,3.50
2022-08-17T09:07:50.685Z,2.70
2022-08-17T09:10:29.961Z,2.70
2022-08-17T09:13:14.587Z,3.33
2022-08-17T09:15:59.234Z,3.13
2022-08-17T09:19:02.955Z,3.03
2022-08-17T09:21:21.064Z,3.10
2022-08-17T09:24:04.978Z,3.15
2022-08-17T09:29:03.356Z,3.30
2022-08-17T09:31:52.480Z,3.13
2022-08-17T09:34:43.600Z,3.17
2022-08-17T09:40:08.648Z,3.28
2022-08-17T09:42:44.720Z,3.17
2022-08-17T09:45:50.862Z,3.40
2022-08-17T09:48:37.416Z,3.22
2022-08-17T09:51:10.468Z,3.00
2022-08-17T09:53:38.832Z,3.10
2022-08-17T09:56:26.883Z,2.85
2022-08-17T09:59:29.531Z,2.90
2022-08-17T10:02:41.374Z,3.08
2022-08-17T10:05:22.844Z,3.42
2022-08-17T10:08:08.763Z,3.35
2022-08-17T10:10:56.359Z,3.20
2022-08-17T10:13:41.576Z,3.00
2022-08-17T10:16:38.432Z,3.25
2022-08-17T10:19:24.208Z,3.03
2022-08-17T10:22:32.713Z,3.65
2022-08-17T10:25:24.857Z,3.15
2022-08-17T10:28:10.704Z,3.25
2022-08-17T10:31:16.576Z,2.95
2022-08-17T10:34:13.301Z,3.33
2022-08-17T10:37:11.087Z,3.30
2022-08-17T10:40:02.715Z,3.15
2022-08-17T10:42:50.337Z,3.20
2022-08-17T10:45:26.789Z,3.03
2022-08-17T10:48:21.261Z,3.10
2022-08-17T10:50:59.879Z,3.13
2022-08-17T10:53:32.714Z,3.30
2022-08-17T10:56:14.704Z,3.33
2022-08-17T10:58:59.584Z,3.33
2022-08-17T11:01:32.751Z,3.13
2022-08-17T11:04:21.697Z,3.13
2022-08-17T11:07:06.886Z,3.50
2022-08-17T11:10:01.352Z,3.47
2022-08-17T11:12:45.180Z,3.00
2022-08-17T11:15:36.972Z,3.40
2022-08-17T11:18:37.179Z,3.38
2022-08-17T11:21:20.537Z,3.30
2022-08-17T11:24:06.142Z,2.65
2022-08-17T11:26:36.637Z,3.08
2022-08-17T11:29:10.555Z,3.20
2022-08-17T11:31:41.812Z,3.10
2022-08-17T11:34:19.808Z,3.00
2022-08-17T11:37:05.399Z,3.30
2022-08-17T11:40:04.939Z,3.20
2022-08-17T11:43:04.374Z,3.33
2022-08-17T11:46:02.163Z,3.00
2022-08-17T11:49:12.823Z,2.70
2022-08-17T11:52:07.282Z,2.95
2022-08-17T11:54:45.364Z,2.90
2022-08-17T11:57:27.730Z,2.88
2022-08-17T12:00:05.495Z,2.47
2022-08-17T12:02:39.003Z,3.33
2022-08-17T12:05:14.538Z,2.80
2022-08-17T12:07:53.155Z,2.88
2022-08-17T12:10:30.659Z,2.67
2022-08-17T12:12:59.606Z,3.05
2022-08-17T12:15:30.637Z,2.97
2022-08-17T12:17:58.725Z,2.78
2022-08-17T12:20:37.305Z,2.92
2022-08-17T12:23:26.598Z,2.50
2022-08-17T12:26:04.821Z,2.70
2022-08-17T12:28:37.019Z,2.70
2022-08-17T12:31:13.334Z,2.67
2022-08-17T12:33:44.672Z,2.60
2022-08-17T12:36:15.367Z,2.50
2022-08-17T12:38:51.315Z,2.43
2022-08-17T12:41:39.032Z,2.60
2022-08-17T12:44:12.553Z,2.60
2022-08-17T12:47:07.808Z,2.50
2022-08-17T12:49:37.946Z,2.47
2022-08-17T12:52:07.913Z,2.58
2022-08-17T12:54:43.327Z,2.40
2022-08-17T12:57:17.697Z,2.22
2022-08-17T12:59:59.013Z,2.33
2022-08-17T13:02:39.260Z,2.60
2022-08-17T13:05:08.866Z,2.70
2022-08-17T13:07:44.869Z,2.17
2022-08-17T13:10:21.599Z,2.78
2022-08-17T13:12:51.082Z,2.28
2022-08-17T13:15:35.990Z,2.20
2022-08-17T13:18:07.742Z,2.13
2022-08-17T13:20:35.356Z,2.55
2022-08-17T13:23:12.030Z,2.10
2022-08-17T13:25:39.730Z,2.30
2022-08-17T13:28:06.670Z,2.45
2022-08-17T13:30:33.920Z,2.60
2022-08-17T13:33:04.072Z,2.08
2022-08-17T13:35:47.068Z,2.22
2022-08-17T13:38:37.627Z,2.08
2022-08-17T13:41:06.454Z,1.60
2022-08-17T13:43:42.785Z,1.75
2022-08-17T13:46:17.538Z,1.90
2022-08-17T13:48:44.754Z,1.40
2022-08-17T13:51:17.215Z,1.63
2022-08-17T13:53:44.090Z,1.90
2022-08-17T13:56:33.404Z,1.60
2022-08-17T13:59:14.705Z,1.40
2022-08-17T14:01:48.491Z,1.88
2022-08-17T14:04:24.418Z,1.42
2022-08-17T14:07:02.453Z,1.70
2022-08-17T14:09:37.548Z,1.63
2022-08-17T14:12:09.760Z,1.40
2022-08-17T14:14:37.554Z,1.65
2022-08-17T14:17:05.080Z,1.67
2022-08-17T14:19:36.160Z,1.25
2022-08-17T14:22:05.006Z,1.40
2022-08-17T14:24:35.380Z,1.80
2022-08-17T14:27:04.712Z,1.80
2022-08-17T14:29:34.462Z,1.65
2022-08-17T14:32:20.678Z,1.73
2022-08-17T14:34:49.714Z,17.42
2022-08-17T14:37:18.802Z,23.55
2022-08-17T14:39:45.996Z,13.80
2022-08-17T14:42:13.159Z,8.88
2022-08-17T14:44:40.444Z,13.07
2022-08-17T14:47:13.913Z,10.02
2022-08-17T14:49:40.912Z,6.97
2022-08-17T14:52:12.308Z,8.05
2022-08-17T14:54:43.798Z,15.77
2022-08-17T14:57:24.670Z,11.25
2022-08-17T14:59:59.897Z,13.60
2022-08-17T15:02:29.744Z,11.52
2022-08-17T15:05:02.357Z,5.07
2022-08-17T15:07:30.715Z,6.93
2022-08-17T15:10:00.714Z,5.60
2022-08-17T15:12:32.701Z,5.30
2022-08-17T15:15:01.358Z,6.38
2022-08-17T15:17:43.894Z,4.15
2022-08-17T15:20:21.976Z,2.42
2022-08-17T15:22:55.888Z,4.40
2022-08-17T15:25:25.283Z,2.65
2022-08-17T15:27:52.643Z,2.78
2022-08-17T15:30:20.520Z,2.83
2022-08-17T15:32:54.398Z,1.92
2022-08-17T15:35:29.072Z,2.60
2022-08-17T15:37:58.669Z,1.70
2022-08-17T15:40:25.645Z,1.58
2022-08-17T15:42:53.036Z,2.05
2022-08-17T15:45:24.973Z,2.03
2022-08-17T15:47:52.954Z,2.97
2022-08-17T15:50:20.150Z,2.00
2022-08-17T15:52:47.703Z,3.03
2022-08-17T15:55:15.686Z,2.53
2022-08-17T15:57:42.905Z,2.47
2022-08-17T16:00:10.602Z,2.45
2022-08-17T16:03:45.086Z,2.92
2022-08-17T16:05:30.136Z,2.95
2022-08-17T16:07:59.742Z,2.90
2022-08-17T16:10:35.303Z,2.30
2022-08-17T16:13:04.471Z,1.88
2022-08-17T16:15:32.217Z,2.20
2022-08-17T16:17:59.984Z,3.22
2022-08-17T16:20:27.213Z,2.75
2022-08-17T16:22:54.918Z,2.05
2022-08-17T16:25:51.975Z,2.30
2022-08-17T16:28:18.263Z,2.30
2022-08-17T16:30:45.712Z,2.15
2022-08-17T16:33:13.773Z,2.40
2022-08-17T16:35:42.236Z,2.30
2022-08-17T16:38:09.685Z,2.47
2022-08-17T16:40:38.209Z,3.78
2022-08-17T16:43:10.639Z,4.82
2022-08-17T16:45:40.689Z,4.10
2022-08-17T16:48:08.670Z,3.78
2022-08-17T16:50:36.262Z,4.00
2022-08-17T16:53:10.681Z,4.50
2022-08-17T16:55:38.573Z,3.25
2022-08-17T16:58:06.952Z,3.15
2022-08-17T17:00:34.772Z,3.60
2022-08-17T17:03:19.203Z,3.10
2022-08-17T17:05:57.993Z,3.20
2022-08-17T17:08:33.744Z,3.10
2022-08-17T17:11:15.910Z,2.78
2022-08-17T17:14:04.068Z,2.63
2022-08-17T17:16:45.865Z,2.65
2022-08-17T17:19:35.017Z,3.63
2022-08-17T17:22:20.722Z,3.17
2022-08-17T17:25:08.007Z,2.65
2022-08-17T17:27:59.910Z,3.13
2022-08-17T17:31:04.041Z,3.80
2022-08-17T17:33:42.165Z,3.97
2022-08-17T17:36:47.235Z,4.35
2022-08-17T17:39:43.782Z,4.40
2022-08-17T17:42:19.949Z,4.57
2022-08-17T17:45:00.107Z,3.42
2022-08-17T17:47:28.250Z,3.40
2022-08-17T17:49:55.229Z,3.10
2022-08-17T17:52:36.493Z,3.50
2022-08-17T17:55:13.287Z,3.20
2022-08-17T17:57:44.902Z,3.50
2022-08-17T18:00:20.767Z,4.72
2022-08-17T18:02:51.864Z,3.22
2022-08-17T18:05:37.368Z,3.38
2022-08-17T18:08:19.255Z,3.03
2022-08-17T18:11:07.797Z,3.10
2022-08-17T18:13:40.619Z,3.65
2022-08-17T18:16:13.847Z,2.97
2022-08-17T18:18:44.910Z,3.00
2022-08-17T18:21:19.404Z,4.40
2022-08-17T18:23:48.865Z,9.63
2022-08-17T18:26:34.440Z,17.58
2022-08-17T18:29:02.421Z,11.73
2022-08-17T18:31:29.511Z,6.18
2022-08-17T18:34:46.060Z,8.27
2022-08-17T18:37:10.023Z,6.18
2022-08-17T18:39:38.440Z,5.80
2022-08-17T18:42:24.944Z,4.65
2022-08-17T18:44:55.077Z,4.57
2022-08-17T18:47:25.644Z,5.15
2022-08-17T18:50:20.092Z,4.95
2022-08-17T18:52:51.499Z,4.40
2022-08-17T18:55:31.550Z,4.65
2022-08-17T18:58:20.087Z,4.85
2022-08-17T19:00:49.331Z,4.75
2022-08-17T19:03:16.276Z,5.25
2022-08-17T19:05:46.241Z,5.18
2022-08-17T19:08:22.601Z,5.13
2022-08-17T19:10:58.100Z,5.50
2022-08-17T19:13:42.949Z,6.05
2022-08-17T19:16:25.397Z,4.65
2022-08-17T19:21:41.809Z,5.05
2022-08-17T19:24:21.010Z,4.45
2022-08-17T19:27:07.889Z,4.70
2022-08-17T19:29:56.443Z,4.50
2022-08-17T19:32:30.384Z,4.32
2022-08-17T19:34:58.076Z,4.38
2022-08-17T19:37:33.635Z,4.68
2022-08-17T19:40:52.250Z,3.80
2022-08-17T19:43:47.970Z,4.65
2022-08-17T19:47:06.164Z,3.65
2022-08-17T19:49:46.730Z,4.60
2022-08-17T19:52:47.991Z,5.05
2022-08-17T19:55:20.254Z,4.40
2022-08-17T19:58:11.239Z,4.90
2022-08-17T20:00:50.534Z,4.45
2022-08-17T20:03:27.083Z,4.93
2022-08-17T20:06:12.522Z,4.35
2022-08-17T20:09:33.502Z,4.10
2022-08-17T20:12:10.346Z,4.43
2022-08-17T20:14:55.081Z,4.20
2022-08-17T20:17:29.547Z,3.80
2022-08-17T20:20:29.813Z,3.63
2022-08-17T20:23:05.222Z,3.83
2022-08-17T20:26:17.164Z,3.83
2022-08-17T20:29:40.191Z,3.97
2022-08-17T20:32:18.977Z,4.00
2022-08-17T20:34:47.645Z,3.80
2022-08-17T20:37:14.637Z,4.10
2022-08-17T20:40:09.659Z,4.00
2022-08-17T20:42:37.320Z,3.60
2022-08-17T20:45:26.264Z,3.72
2022-08-17T20:48:26.059Z,3.58
2022-08-17T20:50:56.119Z,4.17
2022-08-17T20:53:47.676Z,3.75
2022-08-17T20:56:46.691Z,4.18
2022-08-17T20:59:30.778Z,4.20
2022-08-17T21:02:18.169Z,3.80
2022-08-17T21:04:52.907Z,4.13
2022-08-17T21:07:29.667Z,3.95
2022-08-17T21:10:19.549Z,3.97
2022-08-17T21:13:07.401Z,4.35
2022-08-17T21:15:42.089Z,4.15
2022-08-17T21:18:38.771Z,4.13
2022-08-17T21:21:37.647Z,4.13
2022-08-17T21:24:23.423Z,4.40
2022-08-17T21:26:51.122Z,4.70
2022-08-17T21:29:30.906Z,5.43
2022-08-17T21:32:00.622Z,4.60
2022-08-17T21:34:37.926Z,4.30
2022-08-17T21:37:23.588Z,4.75
2022-08-17T21:40:18.116Z,5.30
2022-08-17T21:42:50.712Z,5.20
2022-08-17T21:45:24.368Z,5.82
2022-08-17T21:48:06.947Z,5.15
2022-08-17T21:53:03.198Z,4.90
2022-08-17T21:55:32.651Z,5.03
2022-08-17T21:58:14.164Z,5.00
2022-08-17T22:00:44.943Z,4.38
2022-08-17T22:03:24.174Z,4.38
2022-08-17T22:05:51.637Z,4.00
2022-08-17T22:08:24.471Z,4.80
2022-08-17T22:10:59.912Z,3.92
2022-08-17T22:13:29.696Z,3.92
2022-08-17T22:16:27.763Z,3.97
2022-08-17T22:18:57.715Z,4.20
2022-08-17T22:21:25.400Z,4.13
2022-08-17T22:24:04.619Z,3.88
2022-08-17T22:27:00.319Z,5.00
2022-08-17T22:29:59.950Z,3.83
2022-08-17T22:32:46.750Z,3.65
2022-08-17T22:35:34.852Z,3.75
2022-08-17T22:38:20.182Z,3.85
2022-08-17T22:40:52.584Z,4.03
2022-08-17T22:43:26.334Z,4.05
2022-08-17T22:45:55.909Z,4.20
2022-08-17T22:48:27.472Z,4.18
2022-08-17T22:51:23.196Z,3.85
2022-08-17T22:54:12.126Z,4.18
2022-08-17T22:57:25.981Z,4.65
2022-08-17T22:59:55.975Z,4.32
2022-08-17T23:02:27.484Z,4.38
2022-08-17T23:05:13.069Z,4.70
2022-08-17T23:07:43.714Z,4.65
2022-08-17T23:10:13.354Z,4.80
2022-08-17T23:12:40.398Z,4.90
2022-08-17T23:15:15.936Z,4.30
2022-08-17T23:17:45.270Z,4.60
2022-08-17T23:20:15.172Z,4.53
2022-08-17T23:22:52.544Z,4.85
2022-08-17T23:25:29.385Z,4.30
2022-08-17T23:27:58.621Z,4.15
2022-08-17T23:30:28.581Z,4.28
2022-08-17T23:32:56.615Z,4.38
2022-08-17T23:35:39.384Z,4.55
2022-08-17T23:38:12.399Z,4.32
2022-08-17T23:40:40.098Z,4.47
2022-08-17T23:43:17.434Z,4.07
2022-08-17T23:45:53.442Z,4.80
2022-08-17T23:48:34.130Z,4.60
2022-08-17T23:51:17.450Z,5.03
2022-08-17T23:53:48.037Z,4.90
2022-08-17T23:56:15.465Z,4.72
2022-08-17T23:58:44.863Z,4.20
